Columbia — WDD6400 — position and weather

sailwx.info

Track history (hours):
 
Tides and Currents Weather Stations Pressure Air Temp Water Temp Dewpoint Dewpoint Depression Visibility Wind Speed Wind Dir Waves Ship Positions

Columbia

More information available from US FCC via Universal Licensing System and Coast Guard Vessel Documentation Center.

Last reported at 2014-Jul-16 00:32 UTC. Time now 2014-Jul-22 15:29 UTC.
Position N 27°36' W 082°52'.

Length 194 m; draft 10.1 m.

Type: Towing. MMSI: 367172440.

Date/timePositionNaut miles runAvg speedWind from/ knotsBaromVisibWave heightAir tempDewpointWater temp
2014-Jul-16 00:32N 27°36' W 082°52'1111.0
2014-Jul-15 23:34N 27°37' W 082°40'1110.4
2014-Jul-15 22:32N 27°45' W 082°31'9 8.8
2014-Jul-15 21:34N 27°52' W 082°27'4 3.6
2014-Jul-15 20:33N 27°56' W 082°27'0 0.4
2014-Jul-15 19:33N 27°56' W 082°27'0 0.0
2014-Jul-15 18:34N 27°56' W 082°27'0 0.0
2014-Jul-15 17:33N 27°56' W 082°27'0 0.0
2014-Jul-15 16:33N 27°56' W 082°27'0 0.0
2014-Jul-15 15:34N 27°56' W 082°27'0 0.0
2014-Jul-15 14:33N 27°56' W 082°27'0 0.0
2014-Jul-15 13:33N 27°56' W 082°27'0 0.0
2014-Jul-15 12:33N 27°56' W 082°27'0 0.0
2014-Jul-15 11:33N 27°56' W 082°27'0 0.0
2014-Jul-15 10:34N 27°56' W 082°27'0 0.0
2014-Jul-15 09:33N 27°56' W 082°27'0 0.0
2014-Jul-15 08:34N 27°56' W 082°27'0 0.0
2014-Jul-15 07:33N 27°56' W 082°27'0 0.0
2014-Jul-15 06:33N 27°56' W 082°27'0 0.0
2014-Jul-15 05:33N 27°56' W 082°27'0 0.0
2014-Jul-15 04:34N 27°56' W 082°27'0 0.0
2014-Jul-15 03:33N 27°56' W 082°27'0 0.0
2014-Jul-15 02:34N 27°56' W 082°27'0 0.0
2014-Jul-15 01:33N 27°56' W 082°27'0 0.0
2014-Jul-15 00:33N 27°56' W 082°27'0 0.0
2014-Jul-14 23:33N 27°56' W 082°27'0 0.0
2014-Jul-14 22:33N 27°56' W 082°27'0 0.0
2014-Jul-14 21:33N 27°56' W 082°27'2 1.8
2014-Jul-14 20:33N 27°55' W 082°26'1 0.9
2014-Jul-14 19:33N 27°55' W 082°26'0 0.0
2014-Jul-14 18:33N 27°55' W 082°26'0 0.0
2014-Jul-14 17:34N 27°55' W 082°26'1 1.2
2014-Jul-14 16:33N 27°56' W 082°27'1 0.8
2014-Jul-14 15:33N 27°55' W 082°27'7 7.1
2014-Jul-14 14:33N 27°48' W 082°28'8 8.0
2014-Jul-14 13:33N 27°42' W 082°33'8 8.3
2014-Jul-14 12:34N 27°37' W 082°41'8 8.4
2014-Jul-14 11:33N 27°36' W 082°50'9 9.0
2014-Jul-14 10:34N 27°35' W 083°00'  
2014-Jul-06 03:33N 27°36' W 082°58'1010.2
2014-Jul-06 02:33N 27°37' W 082°47'9 9.1
2014-Jul-06 01:33N 27°39' W 082°37'9 9.3
2014-Jul-06 00:33N 27°47' W 082°31'  
Track history (hours):
 
Tides and Currents Weather Stations Pressure Air Temp Water Temp Dewpoint Dewpoint Depression Visibility Wind Speed Wind Dir Waves Ship Positions

Columbia

More information available from US FCC via Universal Licensing System and Coast Guard Vessel Documentation Center.

Last reported at 2014-Jul-16 00:32 UTC. Time now 2014-Jul-22 15:29 UTC.
Position N 27°36' W 082°52'.

Length 194 m; draft 10.1 m.

Type: Towing. MMSI: 367172440.

Date/timePositionNaut miles runAvg speedWind from/ knotsBaromVisibWave heightAir tempDewpointWater temp
2014-Jul-16 00:32N 27°36' W 082°52'1111.0
2014-Jul-15 23:34N 27°37' W 082°40'1110.4
2014-Jul-15 22:32N 27°45' W 082°31'9 8.8
2014-Jul-15 21:34N 27°52' W 082°27'4 3.6
2014-Jul-15 20:33N 27°56' W 082°27'0 0.4
2014-Jul-15 19:33N 27°56' W 082°27'0 0.0
2014-Jul-15 18:34N 27°56' W 082°27'0 0.0
2014-Jul-15 17:33N 27°56' W 082°27'0 0.0
2014-Jul-15 16:33N 27°56' W 082°27'0 0.0
2014-Jul-15 15:34N 27°56' W 082°27'0 0.0
2014-Jul-15 14:33N 27°56' W 082°27'0 0.0
2014-Jul-15 13:33N 27°56' W 082°27'0 0.0
2014-Jul-15 12:33N 27°56' W 082°27'0 0.0
2014-Jul-15 11:33N 27°56' W 082°27'0 0.0
2014-Jul-15 10:34N 27°56' W 082°27'0 0.0
2014-Jul-15 09:33N 27°56' W 082°27'0 0.0
2014-Jul-15 08:34N 27°56' W 082°27'0 0.0
2014-Jul-15 07:33N 27°56' W 082°27'0 0.0
2014-Jul-15 06:33N 27°56' W 082°27'0 0.0
2014-Jul-15 05:33N 27°56' W 082°27'0 0.0
2014-Jul-15 04:34N 27°56' W 082°27'0 0.0
2014-Jul-15 03:33N 27°56' W 082°27'0 0.0
2014-Jul-15 02:34N 27°56' W 082°27'0 0.0
2014-Jul-15 01:33N 27°56' W 082°27'0 0.0
2014-Jul-15 00:33N 27°56' W 082°27'0 0.0
2014-Jul-14 23:33N 27°56' W 082°27'0 0.0
2014-Jul-14 22:33N 27°56' W 082°27'0 0.0
2014-Jul-14 21:33N 27°56' W 082°27'2 1.8
2014-Jul-14 20:33N 27°55' W 082°26'1 0.9
2014-Jul-14 19:33N 27°55' W 082°26'0 0.0
2014-Jul-14 18:33N 27°55' W 082°26'0 0.0
2014-Jul-14 17:34N 27°55' W 082°26'1 1.2
2014-Jul-14 16:33N 27°56' W 082°27'1 0.8
2014-Jul-14 15:33N 27°55' W 082°27'7 7.1
2014-Jul-14 14:33N 27°48' W 082°28'8 8.0
2014-Jul-14 13:33N 27°42' W 082°33'8 8.3
2014-Jul-14 12:34N 27°37' W 082°41'8 8.4
2014-Jul-14 11:33N 27°36' W 082°50'9 9.0
2014-Jul-14 10:34N 27°35' W 083°00'  
2014-Jul-06 03:33N 27°36' W 082°58'1010.2
2014-Jul-06 02:33N 27°37' W 082°47'9 9.1
2014-Jul-06 01:33N 27°39' W 082°37'9 9.3
2014-Jul-06 00:33N 27°47' W 082°31'  

Dump ship's entire track history